sensor_id;sensor_type;location;lat;lon;timestamp;temperature;humidity
37518;DHT22;23366;52.498;13.446;2023-06-04T00:02:03;14.20;56.40
37518;DHT22;23366;52.498;13.446;2023-06-04T00:04:29;14.20;56.60
37518;DHT22;23366;52.498;13.446;2023-06-04T00:06:55;14.20;56.80
37518;DHT22;23366;52.498;13.446;2023-06-04T00:09:21;14.20;57.40
37518;DHT22;23366;52.498;13.446;2023-06-04T00:11:46;14.20;58.00
37518;DHT22;23366;52.498;13.446;2023-06-04T00:14:13;14.10;58.20
37518;DHT22;23366;52.498;13.446;2023-06-04T00:16:40;14.10;58.60
37518;DHT22;23366;52.498;13.446;2023-06-04T00:19:06;14.10;59.00
37518;DHT22;23366;52.498;13.446;2023-06-04T00:21:31;14.00;59.20
37518;DHT22;23366;52.498;13.446;2023-06-04T00:23:58;14.00;59.60
37518;DHT22;23366;52.498;13.446;2023-06-04T00:26:24;14.00;60.00
37518;DHT22;23366;52.498;13.446;2023-06-04T00:28:50;14.00;60.00
37518;DHT22;23366;52.498;13.446;2023-06-04T00:31:15;13.90;60.80
37518;DHT22;23366;52.498;13.446;2023-06-04T00:33:41;13.90;60.40
37518;DHT22;23366;52.498;13.446;2023-06-04T00:36:06;13.80;61.40
37518;DHT22;23366;52.498;13.446;2023-06-04T00:38:32;13.80;60.80
37518;DHT22;23366;52.498;13.446;2023-06-04T00:40:58;13.80;61.50
37518;DHT22;23366;52.498;13.446;2023-06-04T00:43:23;13.80;61.00
37518;DHT22;23366;52.498;13.446;2023-06-04T00:45:52;13.80;61.10
37518;DHT22;23366;52.498;13.446;2023-06-04T00:48:18;13.80;61.40
37518;DHT22;23366;52.498;13.446;2023-06-04T00:50:44;13.70;61.60
37518;DHT22;23366;52.498;13.446;2023-06-04T00:53:09;13.80;61.60
37518;DHT22;23366;52.498;13.446;2023-06-04T00:55:36;13.70;61.50
37518;DHT22;23366;52.498;13.446;2023-06-04T00:58:01;13.70;61.70
37518;DHT22;23366;52.498;13.446;2023-06-04T01:00:29;13.70;61.90
37518;DHT22;23366;52.498;13.446;2023-06-04T01:02:56;13.70;62.00
37518;DHT22;23366;52.498;13.446;2023-06-04T01:05:32;13.60;62.30
37518;DHT22;23366;52.498;13.446;2023-06-04T01:07:59;13.60;62.40
37518;DHT22;23366;52.498;13.446;2023-06-04T01:10:25;13.60;62.60
37518;DHT22;23366;52.498;13.446;2023-06-04T01:12:50;13.60;62.70
37518;DHT22;23366;52.498;13.446;2023-06-04T01:15:16;13.60;62.90
37518;DHT22;23366;52.498;13.446;2023-06-04T01:17:43;13.60;63.00
37518;DHT22;23366;52.498;13.446;2023-06-04T01:20:18;13.60;63.00
37518;DHT22;23366;52.498;13.446;2023-06-04T01:25:38;13.50;63.40
37518;DHT22;23366;52.498;13.446;2023-06-04T01:28:06;13.50;63.40
37518;DHT22;23366;52.498;13.446;2023-06-04T01:30:34;13.50;63.40
37518;DHT22;23366;52.498;13.446;2023-06-04T01:33:01;13.50;63.50
37518;DHT22;23366;52.498;13.446;2023-06-04T01:35:28;13.50;63.80
37518;DHT22;23366;52.498;13.446;2023-06-04T01:37:54;13.40;63.80
37518;DHT22;23366;52.498;13.446;2023-06-04T01:40:20;13.40;64.00
37518;DHT22;23366;52.498;13.446;2023-06-04T01:42:46;13.40;64.30
37518;DHT22;23366;52.498;13.446;2023-06-04T01:45:12;13.40;64.60
37518;DHT22;23366;52.498;13.446;2023-06-04T01:47:37;13.30;64.70
37518;DHT22;23366;52.498;13.446;2023-06-04T01:50:05;13.30;64.50
37518;DHT22;23366;52.498;13.446;2023-06-04T01:52:35;13.30;64.90
37518;DHT22;23366;52.498;13.446;2023-06-04T01:55:00;13.30;64.90
37518;DHT22;23366;52.498;13.446;2023-06-04T01:57:27;13.30;64.80
37518;DHT22;23366;52.498;13.446;2023-06-04T01:59:52;13.30;65.00
37518;DHT22;23366;52.498;13.446;2023-06-04T02:02:19;13.30;65.00
37518;DHT22;23366;52.498;13.446;2023-06-04T02:04:44;13.20;65.30
37518;DHT22;23366;52.498;13.446;2023-06-04T02:07:10;13.20;65.30
37518;DHT22;23366;52.498;13.446;2023-06-04T02:09:36;13.20;65.20
37518;DHT22;23366;52.498;13.446;2023-06-04T02:12:02;13.20;65.40
37518;DHT22;23366;52.498;13.446;2023-06-04T02:14:28;13.20;65.60
37518;DHT22;23366;52.498;13.446;2023-06-04T02:16:53;13.20;65.60
37518;DHT22;23366;52.498;13.446;2023-06-04T02:19:24;13.20;65.80
37518;DHT22;23366;52.498;13.446;2023-06-04T02:21:51;13.10;65.40
37518;DHT22;23366;52.498;13.446;2023-06-04T02:24:17;13.10;65.70
37518;DHT22;23366;52.498;13.446;2023-06-04T02:26:42;13.10;65.70
37518;DHT22;23366;52.498;13.446;2023-06-04T02:29:08;13.10;65.90
37518;DHT22;23366;52.498;13.446;2023-06-04T02:31:33;13.10;66.10
37518;DHT22;23366;52.498;13.446;2023-06-04T02:33:59;13.00;66.50
37518;DHT22;23366;52.498;13.446;2023-06-04T02:36:24;13.00;66.70
37518;DHT22;23366;52.498;13.446;2023-06-04T02:38:49;13.00;66.80
37518;DHT22;23366;52.498;13.446;2023-06-04T02:41:16;13.00;67.10
37518;DHT22;23366;52.498;13.446;2023-06-04T02:43:42;13.00;67.10
37518;DHT22;23366;52.498;13.446;2023-06-04T02:46:07;13.00;67.00
37518;DHT22;23366;52.498;13.446;2023-06-04T02:48:32;13.00;66.80
37518;DHT22;23366;52.498;13.446;2023-06-04T02:50:58;13.00;66.90
37518;DHT22;23366;52.498;13.446;2023-06-04T02:53:23;13.00;66.80
37518;DHT22;23366;52.498;13.446;2023-06-04T02:55:49;13.00;67.20
37518;DHT22;23366;52.498;13.446;2023-06-04T02:58:17;12.90;67.10
37518;DHT22;23366;52.498;13.446;2023-06-04T03:00:42;12.90;67.00
37518;DHT22;23366;52.498;13.446;2023-06-04T03:03:08;12.90;67.30
37518;DHT22;23366;52.498;13.446;2023-06-04T03:05:33;12.90;67.40
37518;DHT22;23366;52.498;13.446;2023-06-04T03:08:01;12.90;67.60
37518;DHT22;23366;52.498;13.446;2023-06-04T03:10:27;13.00;67.60
37518;DHT22;23366;52.498;13.446;2023-06-04T03:12:53;13.00;67.60
37518;DHT22;23366;52.498;13.446;2023-06-04T03:15:18;13.00;67.50
37518;DHT22;23366;52.498;13.446;2023-06-04T03:17:44;13.00;67.60
37518;DHT22;23366;52.498;13.446;2023-06-04T03:20:10;13.00;67.60
37518;DHT22;23366;52.498;13.446;2023-06-04T03:22:35;13.00;67.50
37518;DHT22;23366;52.498;13.446;2023-06-04T03:25:02;13.10;67.70
37518;DHT22;23366;52.498;13.446;2023-06-04T03:27:29;13.10;68.00
37518;DHT22;23366;52.498;13.446;2023-06-04T03:29:55;13.10;68.00
37518;DHT22;23366;52.498;13.446;2023-06-04T03:32:20;13.10;68.50
37518;DHT22;23366;52.498;13.446;2023-06-04T03:34:47;13.10;67.60
37518;DHT22;23366;52.498;13.446;2023-06-04T03:37:12;13.10;67.80
37518;DHT22;23366;52.498;13.446;2023-06-04T03:39:38;13.20;67.60
37518;DHT22;23366;52.498;13.446;2023-06-04T03:42:04;13.20;67.80
37518;DHT22;23366;52.498;13.446;2023-06-04T03:44:31;13.30;67.80
37518;DHT22;23366;52.498;13.446;2023-06-04T03:46:56;13.30;67.00
37518;DHT22;23366;52.498;13.446;2023-06-04T03:49:22;13.30;66.60
37518;DHT22;23366;52.498;13.446;2023-06-04T03:51:47;13.30;66.90
37518;DHT22;23366;52.498;13.446;2023-06-04T03:54:14;13.40;66.70
37518;DHT22;23366;52.498;13.446;2023-06-04T03:56:45;13.50;66.30
37518;DHT22;23366;52.498;13.446;2023-06-04T03:59:11;13.50;66.10
37518;DHT22;23366;52.498;13.446;2023-06-04T04:01:37;13.50;66.10
37518;DHT22;23366;52.498;13.446;2023-06-04T04:04:03;13.60;65.90
37518;DHT22;23366;52.498;13.446;2023-06-04T04:06:29;13.60;65.90
37518;DHT22;23366;52.498;13.446;2023-06-04T04:08:54;13.60;66.30
37518;DHT22;23366;52.498;13.446;2023-06-04T04:11:20;13.70;67.30
37518;DHT22;23366;52.498;13.446;2023-06-04T04:13:46;13.70;68.20
37518;DHT22;23366;52.498;13.446;2023-06-04T04:16:12;13.80;68.70
37518;DHT22;23366;52.498;13.446;2023-06-04T04:18:37;14.00;69.10
37518;DHT22;23366;52.498;13.446;2023-06-04T04:21:04;14.10;68.90
37518;DHT22;23366;52.498;13.446;2023-06-04T04:23:30;14.20;68.00
37518;DHT22;23366;52.498;13.446;2023-06-04T04:25:59;14.30;68.00
37518;DHT22;23366;52.498;13.446;2023-06-04T04:28:25;14.50;67.50
37518;DHT22;23366;52.498;13.446;2023-06-04T04:30:55;14.70;66.50
37518;DHT22;23366;52.498;13.446;2023-06-04T04:33:28;14.80;66.10
37518;DHT22;23366;52.498;13.446;2023-06-04T04:36:05;15.10;65.40
37518;DHT22;23366;52.498;13.446;2023-06-04T04:38:34;15.30;64.70
37518;DHT22;23366;52.498;13.446;2023-06-04T04:41:00;15.70;62.90
37518;DHT22;23366;52.498;13.446;2023-06-04T04:43:33;16.10;61.70
37518;DHT22;23366;52.498;13.446;2023-06-04T04:45:59;16.60;59.80
37518;DHT22;23366;52.498;13.446;2023-06-04T04:48:25;17.60;58.00
37518;DHT22;23366;52.498;13.446;2023-06-04T04:50:51;19.00;56.10
37518;DHT22;23366;52.498;13.446;2023-06-04T04:53:17;20.60;53.80
37518;DHT22;23366;52.498;13.446;2023-06-04T04:55:42;22.20;51.00
37518;DHT22;23366;52.498;13.446;2023-06-04T04:58:08;23.60;48.80
37518;DHT22;23366;52.498;13.446;2023-06-04T05:00:33;24.90;47.20
37518;DHT22;23366;52.498;13.446;2023-06-04T05:02:59;26.10;45.90
37518;DHT22;23366;52.498;13.446;2023-06-04T05:05:24;27.20;44.90
37518;DHT22;23366;52.498;13.446;2023-06-04T05:07:50;27.90;44.30
37518;DHT22;23366;52.498;13.446;2023-06-04T05:10:16;28.70;42.70
37518;DHT22;23366;52.498;13.446;2023-06-04T05:12:53;29.40;41.90
37518;DHT22;23366;52.498;13.446;2023-06-04T05:15:18;30.10;41.30
37518;DHT22;23366;52.498;13.446;2023-06-04T05:17:45;30.50;40.50
37518;DHT22;23366;52.498;13.446;2023-06-04T05:20:12;30.90;40.10
37518;DHT22;23366;52.498;13.446;2023-06-04T05:22:38;31.00;39.60
37518;DHT22;23366;52.498;13.446;2023-06-04T05:25:04;31.60;39.40
37518;DHT22;23366;52.498;13.446;2023-06-04T05:27:31;31.80;39.00
37518;DHT22;23366;52.498;13.446;2023-06-04T05:29:57;31.90;38.70
37518;DHT22;23366;52.498;13.446;2023-06-04T05:32:22;32.20;38.60
37518;DHT22;23366;52.498;13.446;2023-06-04T05:34:48;32.70;38.30
37518;DHT22;23366;52.498;13.446;2023-06-04T05:37:14;32.90;38.00
37518;DHT22;23366;52.498;13.446;2023-06-04T05:39:42;33.10;37.40
37518;DHT22;23366;52.498;13.446;2023-06-04T05:42:07;33.30;37.20
37518;DHT22;23366;52.498;13.446;2023-06-04T05:44:33;33.60;37.00
37518;DHT22;23366;52.498;13.446;2023-06-04T05:46:58;33.70;36.90
37518;DHT22;23366;52.498;13.446;2023-06-04T05:49:24;33.70;36.70
37518;DHT22;23366;52.498;13.446;2023-06-04T05:51:50;34.20;36.80
37518;DHT22;23366;52.498;13.446;2023-06-04T05:54:16;34.20;36.60
37518;DHT22;23366;52.498;13.446;2023-06-04T05:56:41;34.50;36.10
37518;DHT22;23366;52.498;13.446;2023-06-04T05:59:07;34.60;35.70
37518;DHT22;23366;52.498;13.446;2023-06-04T06:01:32;34.90;36.10
37518;DHT22;23366;52.498;13.446;2023-06-04T06:03:58;35.20;35.50
37518;DHT22;23366;52.498;13.446;2023-06-04T06:06:23;35.40;35.40
37518;DHT22;23366;52.498;13.446;2023-06-04T06:08:49;35.60;35.30
37518;DHT22;23366;52.498;13.446;2023-06-04T06:11:15;35.20;35.20
37518;DHT22;23366;52.498;13.446;2023-06-04T06:13:41;35.40;35.10
37518;DHT22;23366;52.498;13.446;2023-06-04T06:16:07;35.60;34.90
37518;DHT22;23366;52.498;13.446;2023-06-04T06:18:32;35.40;35.00
37518;DHT22;23366;52.498;13.446;2023-06-04T06:20:58;35.70;35.00
37518;DHT22;23366;52.498;13.446;2023-06-04T06:23:23;35.40;34.50
37518;DHT22;23366;52.498;13.446;2023-06-04T06:25:49;35.80;34.80
37518;DHT22;23366;52.498;13.446;2023-06-04T06:28:17;35.80;34.30
37518;DHT22;23366;52.498;13.446;2023-06-04T06:30:43;35.90;34.30
37518;DHT22;23366;52.498;13.446;2023-06-04T06:33:10;35.80;34.30
37518;DHT22;23366;52.498;13.446;2023-06-04T06:35:35;35.80;34.50
37518;DHT22;23366;52.498;13.446;2023-06-04T06:38:01;36.10;34.00
37518;DHT22;23366;52.498;13.446;2023-06-04T06:40:27;36.40;33.80
37518;DHT22;23366;52.498;13.446;2023-06-04T06:42:52;36.50;34.00
37518;DHT22;23366;52.498;13.446;2023-06-04T06:45:21;36.20;33.80
37518;DHT22;23366;52.498;13.446;2023-06-04T06:47:49;36.80;33.80
37518;DHT22;23366;52.498;13.446;2023-06-04T06:50:15;36.20;33.20
37518;DHT22;23366;52.498;13.446;2023-06-04T06:52:41;36.60;33.50
37518;DHT22;23366;52.498;13.446;2023-06-04T06:55:07;36.90;33.70
37518;DHT22;23366;52.498;13.446;2023-06-04T06:57:33;37.30;33.00
37518;DHT22;23366;52.498;13.446;2023-06-04T06:59:59;37.70;33.30
37518;DHT22;23366;52.498;13.446;2023-06-04T07:02:24;37.80;32.80
37518;DHT22;23366;52.498;13.446;2023-06-04T07:04:50;38.30;32.60
37518;DHT22;23366;52.498;13.446;2023-06-04T07:07:16;38.60;32.50
37518;DHT22;23366;52.498;13.446;2023-06-04T07:09:41;39.00;32.00
37518;DHT22;23366;52.498;13.446;2023-06-04T07:12:07;39.20;32.00
37518;DHT22;23366;52.498;13.446;2023-06-04T07:14:33;39.30;31.80
37518;DHT22;23366;52.498;13.446;2023-06-04T07:16:58;39.30;31.80
37518;DHT22;23366;52.498;13.446;2023-06-04T07:19:24;39.60;31.70
37518;DHT22;23366;52.498;13.446;2023-06-04T07:21:50;39.10;31.00
37518;DHT22;23366;52.498;13.446;2023-06-04T07:24:15;39.60;30.70
37518;DHT22;23366;52.498;13.446;2023-06-04T07:26:41;39.50;30.70
37518;DHT22;23366;52.498;13.446;2023-06-04T07:29:06;39.70;30.90
37518;DHT22;23366;52.498;13.446;2023-06-04T07:31:35;40.50;31.10
37518;DHT22;23366;52.498;13.446;2023-06-04T07:34:00;41.00;30.10
37518;DHT22;23366;52.498;13.446;2023-06-04T07:36:26;41.40;30.10
37518;DHT22;23366;52.498;13.446;2023-06-04T07:38:51;41.60;30.00
37518;DHT22;23366;52.498;13.446;2023-06-04T07:41:17;42.50;30.20
37518;DHT22;23366;52.498;13.446;2023-06-04T07:43:43;42.20;29.80
37518;DHT22;23366;52.498;13.446;2023-06-04T07:46:09;42.30;29.50
37518;DHT22;23366;52.498;13.446;2023-06-04T07:48:38;41.60;29.50
37518;DHT22;23366;52.498;13.446;2023-06-04T07:51:03;42.90;29.70
37518;DHT22;23366;52.498;13.446;2023-06-04T07:53:30;42.90;29.50
37518;DHT22;23366;52.498;13.446;2023-06-04T07:55:56;43.50;29.40
37518;DHT22;23366;52.498;13.446;2023-06-04T07:58:22;43.50;29.20
37518;DHT22;23366;52.498;13.446;2023-06-04T08:00:47;43.60;29.20
37518;DHT22;23366;52.498;13.446;2023-06-04T08:03:12;44.20;29.10
37518;DHT22;23366;52.498;13.446;2023-06-04T08:05:40;44.70;29.10
37518;DHT22;23366;52.498;13.446;2023-06-04T08:08:06;44.60;28.90
37518;DHT22;23366;52.498;13.446;2023-06-04T08:10:32;44.00;29.00
37518;DHT22;23366;52.498;13.446;2023-06-04T08:12:58;43.80;29.00
37518;DHT22;23366;52.498;13.446;2023-06-04T08:15:24;43.30;28.70
37518;DHT22;23366;52.498;13.446;2023-06-04T08:17:52;42.90;28.70
37518;DHT22;23366;52.498;13.446;2023-06-04T08:20:17;42.70;29.00
37518;DHT22;23366;52.498;13.446;2023-06-04T08:23:04;42.70;29.20
37518;DHT22;23366;52.498;13.446;2023-06-04T08:25:30;42.50;29.30
37518;DHT22;23366;52.498;13.446;2023-06-04T08:28:01;41.30;28.90
37518;DHT22;23366;52.498;13.446;2023-06-04T08:30:37;41.60;29.40
37518;DHT22;23366;52.498;13.446;2023-06-04T08:33:06;41.40;29.20
37518;DHT22;23366;52.498;13.446;2023-06-04T08:35:38;41.00;29.30
37518;DHT22;23366;52.498;13.446;2023-06-04T08:38:03;41.00;29.40
37518;DHT22;23366;52.498;13.446;2023-06-04T08:40:32;40.90;29.80
37518;DHT22;23366;52.498;13.446;2023-06-04T08:43:13;40.70;39.80
37518;DHT22;23366;52.498;13.446;2023-06-04T08:45:39;39.80;31.30
37518;DHT22;23366;52.498;13.446;2023-06-04T08:48:10;39.10;30.00
37518;DHT22;23366;52.498;13.446;2023-06-04T08:50:39;38.70;31.70
37518;DHT22;23366;52.498;13.446;2023-06-04T08:53:08;38.70;31.20
37518;DHT22;23366;52.498;13.446;2023-06-04T08:55:34;39.00;30.70
37518;DHT22;23366;52.498;13.446;2023-06-04T08:58:00;38.80;30.10
37518;DHT22;23366;52.498;13.446;2023-06-04T09:00:27;39.40;30.00
37518;DHT22;23366;52.498;13.446;2023-06-04T09:02:53;39.30;30.60
37518;DHT22;23366;52.498;13.446;2023-06-04T09:05:22;39.80;30.20
37518;DHT22;23366;52.498;13.446;2023-06-04T09:07:52;40.20;30.70
37518;DHT22;23366;52.498;13.446;2023-06-04T09:10:18;40.20;29.90
37518;DHT22;23366;52.498;13.446;2023-06-04T09:12:47;39.70;30.00
37518;DHT22;23366;52.498;13.446;2023-06-04T09:15:14;40.10;30.00
37518;DHT22;23366;52.498;13.446;2023-06-04T09:17:40;39.80;29.70
37518;DHT22;23366;52.498;13.446;2023-06-04T09:20:06;39.50;29.80
37518;DHT22;23366;52.498;13.446;2023-06-04T09:22:36;39.20;29.80
37518;DHT22;23366;52.498;13.446;2023-06-04T09:25:05;38.60;29.70
37518;DHT22;23366;52.498;13.446;2023-06-04T09:27:39;37.60;29.90
37518;DHT22;23366;52.498;13.446;2023-06-04T09:30:07;37.70;30.50
37518;DHT22;23366;52.498;13.446;2023-06-04T09:32:36;37.20;30.70
37518;DHT22;23366;52.498;13.446;2023-06-04T09:35:12;37.20;30.30
37518;DHT22;23366;52.498;13.446;2023-06-04T09:37:39;36.80;30.50
37518;DHT22;23366;52.498;13.446;2023-06-04T09:40:08;36.00;30.90
37518;DHT22;23366;52.498;13.446;2023-06-04T09:43:07;34.70;31.30
37518;DHT22;23366;52.498;13.446;2023-06-04T09:45:34;33.80;32.00
37518;DHT22;23366;52.498;13.446;2023-06-04T09:48:01;32.80;32.20
37518;DHT22;23366;52.498;13.446;2023-06-04T09:50:29;31.90;32.60
37518;DHT22;23366;52.498;13.446;2023-06-04T09:52:55;31.40;33.40
37518;DHT22;23366;52.498;13.446;2023-06-04T09:55:21;30.90;33.40
37518;DHT22;23366;52.498;13.446;2023-06-04T09:57:48;30.40;33.90
37518;DHT22;23366;52.498;13.446;2023-06-04T10:00:19;30.10;34.10
37518;DHT22;23366;52.498;13.446;2023-06-04T10:02:49;30.00;34.10
37518;DHT22;23366;52.498;13.446;2023-06-04T10:05:15;29.70;34.80
37518;DHT22;23366;52.498;13.446;2023-06-04T10:07:51;29.50;34.90
37518;DHT22;23366;52.498;13.446;2023-06-04T10:10:21;29.20;34.60
37518;DHT22;23366;52.498;13.446;2023-06-04T10:15:38;28.90;35.50
37518;DHT22;23366;52.498;13.446;2023-06-04T10:18:07;28.50;35.50
37518;DHT22;23366;52.498;13.446;2023-06-04T10:20:34;28.20;35.40
37518;DHT22;23366;52.498;13.446;2023-06-04T10:23:00;27.80;35.90
37518;DHT22;23366;52.498;13.446;2023-06-04T10:25:26;27.30;36.00
37518;DHT22;23366;52.498;13.446;2023-06-04T10:27:52;27.00;36.60
37518;DHT22;23366;52.498;13.446;2023-06-04T10:30:18;26.60;36.70
37518;DHT22;23366;52.498;13.446;2023-06-04T10:32:56;26.30;37.30
37518;DHT22;23366;52.498;13.446;2023-06-04T10:35:35;26.20;37.30
37518;DHT22;23366;52.498;13.446;2023-06-04T10:38:12;26.00;37.30
37518;DHT22;23366;52.498;13.446;2023-06-04T10:40:46;25.80;37.60
37518;DHT22;23366;52.498;13.446;2023-06-04T10:43:36;25.70;37.40
37518;DHT22;23366;52.498;13.446;2023-06-04T10:46:17;25.80;37.60
37518;DHT22;23366;52.498;13.446;2023-06-04T10:52:28;26.20;38.00
37518;DHT22;23366;52.498;13.446;2023-06-04T10:55:03;26.40;37.40
37518;DHT22;23366;52.498;13.446;2023-06-04T10:57:29;26.50;37.70
37518;DHT22;23366;52.498;13.446;2023-06-04T10:59:58;26.60;37.60
37518;DHT22;23366;52.498;13.446;2023-06-04T11:02:28;26.70;37.20
37518;DHT22;23366;52.498;13.446;2023-06-04T11:05:04;26.80;37.10
37518;DHT22;23366;52.498;13.446;2023-06-04T11:07:47;26.70;36.90
37518;DHT22;23366;52.498;13.446;2023-06-04T11:10:14;26.30;36.90
37518;DHT22;23366;52.498;13.446;2023-06-04T11:12:48;25.90;37.60
37518;DHT22;23366;52.498;13.446;2023-06-04T11:15:36;25.70;37.60
37518;DHT22;23366;52.498;13.446;2023-06-04T11:18:03;25.40;37.90
37518;DHT22;23366;52.498;13.446;2023-06-04T11:20:34;25.30;38.10
37518;DHT22;23366;52.498;13.446;2023-06-04T11:23:00;25.10;38.00
37518;DHT22;23366;52.498;13.446;2023-06-04T11:25:29;25.10;38.60
37518;DHT22;23366;52.498;13.446;2023-06-04T11:28:00;25.10;38.40
37518;DHT22;23366;52.498;13.446;2023-06-04T11:30:31;25.20;38.10
37518;DHT22;23366;52.498;13.446;2023-06-04T11:33:01;25.30;38.30
37518;DHT22;23366;52.498;13.446;2023-06-04T11:35:29;25.50;38.10
37518;DHT22;23366;52.498;13.446;2023-06-04T11:38:22;25.70;38.00
37518;DHT22;23366;52.498;13.446;2023-06-04T11:41:03;25.80;37.50
37518;DHT22;23366;52.498;13.446;2023-06-04T11:43:32;26.00;37.70
37518;DHT22;23366;52.498;13.446;2023-06-04T11:45:58;26.10;37.60
37518;DHT22;23366;52.498;13.446;2023-06-04T11:48:35;26.10;37.30
37518;DHT22;23366;52.498;13.446;2023-06-04T11:51:26;26.00;37.10
37518;DHT22;23366;52.498;13.446;2023-06-04T11:53:58;25.70;37.60
37518;DHT22;23366;52.498;13.446;2023-06-04T11:56:26;25.30;38.10
37518;DHT22;23366;52.498;13.446;2023-06-04T11:58:55;25.20;38.60
37518;DHT22;23366;52.498;13.446;2023-06-04T12:01:21;24.60;38.30
37518;DHT22;23366;52.498;13.446;2023-06-04T12:03:48;24.50;38.70
37518;DHT22;23366;52.498;13.446;2023-06-04T12:06:18;24.30;39.00
37518;DHT22;23366;52.498;13.446;2023-06-04T12:08:48;24.20;39.40
37518;DHT22;23366;52.498;13.446;2023-06-04T12:11:33;24.30;39.10
37518;DHT22;23366;52.498;13.446;2023-06-04T12:14:03;24.20;39.40
37518;DHT22;23366;52.498;13.446;2023-06-04T12:16:29;24.10;39.00
37518;DHT22;23366;52.498;13.446;2023-06-04T12:19:27;24.10;39.30
37518;DHT22;23366;52.498;13.446;2023-06-04T12:22:03;24.00;39.00
37518;DHT22;23366;52.498;13.446;2023-06-04T12:24:33;24.00;38.70
37518;DHT22;23366;52.498;13.446;2023-06-04T12:27:03;24.00;39.00
37518;DHT22;23366;52.498;13.446;2023-06-04T12:29:29;24.20;38.80
37518;DHT22;23366;52.498;13.446;2023-06-04T12:32:02;24.30;39.00
37518;DHT22;23366;52.498;13.446;2023-06-04T12:34:29;24.40;38.70
37518;DHT22;23366;52.498;13.446;2023-06-04T12:36:54;24.50;38.90
37518;DHT22;23366;52.498;13.446;2023-06-04T12:39:20;24.50;38.70
37518;DHT22;23366;52.498;13.446;2023-06-04T12:41:47;24.60;39.20
37518;DHT22;23366;52.498;13.446;2023-06-04T12:44:21;24.80;38.40
37518;DHT22;23366;52.498;13.446;2023-06-04T12:46:52;24.70;38.40
37518;DHT22;23366;52.498;13.446;2023-06-04T12:49:25;24.30;38.70
37518;DHT22;23366;52.498;13.446;2023-06-04T12:51:58;24.10;38.90
37518;DHT22;23366;52.498;13.446;2023-06-04T12:54:24;24.10;39.00
37518;DHT22;23366;52.498;13.446;2023-06-04T12:56:50;24.20;39.00
37518;DHT22;23366;52.498;13.446;2023-06-04T12:59:19;24.30;39.30
37518;DHT22;23366;52.498;13.446;2023-06-04T13:01:44;24.40;39.30
37518;DHT22;23366;52.498;13.446;2023-06-04T13:04:10;24.50;39.30
37518;DHT22;23366;52.498;13.446;2023-06-04T13:06:39;24.50;39.90
37518;DHT22;23366;52.498;13.446;2023-06-04T13:09:07;24.60;39.20
37518;DHT22;23366;52.498;13.446;2023-06-04T13:11:38;24.70;38.80
37518;DHT22;23366;52.498;13.446;2023-06-04T13:14:04;24.70;38.00
37518;DHT22;23366;52.498;13.446;2023-06-04T13:16:29;24.60;38.20
37518;DHT22;23366;52.498;13.446;2023-06-04T13:18:55;24.60;38.90
37518;DHT22;23366;52.498;13.446;2023-06-04T13:21:20;24.60;38.40
37518;DHT22;23366;52.498;13.446;2023-06-04T13:23:46;24.60;39.30
37518;DHT22;23366;52.498;13.446;2023-06-04T13:26:11;24.30;38.70
37518;DHT22;23366;52.498;13.446;2023-06-04T13:28:38;24.20;38.60
37518;DHT22;23366;52.498;13.446;2023-06-04T13:31:06;24.00;38.90
37518;DHT22;23366;52.498;13.446;2023-06-04T13:33:34;23.90;39.20
37518;DHT22;23366;52.498;13.446;2023-06-04T13:36:02;23.80;39.70
37518;DHT22;23366;52.498;13.446;2023-06-04T13:38:30;23.80;39.40
37518;DHT22;23366;52.498;13.446;2023-06-04T13:40:56;23.80;39.70
37518;DHT22;23366;52.498;13.446;2023-06-04T13:43:22;23.80;40.20
37518;DHT22;23366;52.498;13.446;2023-06-04T13:45:47;24.00;40.50
37518;DHT22;23366;52.498;13.446;2023-06-04T13:48:14;24.00;39.50
37518;DHT22;23366;52.498;13.446;2023-06-04T13:50:41;24.20;39.90
37518;DHT22;23366;52.498;13.446;2023-06-04T13:53:07;24.30;39.90
37518;DHT22;23366;52.498;13.446;2023-06-04T13:55:33;24.30;39.90
37518;DHT22;23366;52.498;13.446;2023-06-04T13:57:58;24.40;40.00
37518;DHT22;23366;52.498;13.446;2023-06-04T14:00:24;24.40;39.60
37518;DHT22;23366;52.498;13.446;2023-06-04T14:02:52;24.50;39.70
37518;DHT22;23366;52.498;13.446;2023-06-04T14:05:20;24.50;39.60
37518;DHT22;23366;52.498;13.446;2023-06-04T14:07:54;24.50;39.40
37518;DHT22;23366;52.498;13.446;2023-06-04T14:10:23;24.50;39.50
37518;DHT22;23366;52.498;13.446;2023-06-04T14:12:49;24.50;39.70
37518;DHT22;23366;52.498;13.446;2023-06-04T14:15:14;24.50;39.30
37518;DHT22;23366;52.498;13.446;2023-06-04T14:17:40;24.50;39.20
37518;DHT22;23366;52.498;13.446;2023-06-04T14:20:06;24.50;39.40
37518;DHT22;23366;52.498;13.446;2023-06-04T14:22:37;24.50;39.40
37518;DHT22;23366;52.498;13.446;2023-06-04T14:25:04;24.50;39.20
37518;DHT22;23366;52.498;13.446;2023-06-04T14:27:29;24.60;39.20
37518;DHT22;23366;52.498;13.446;2023-06-04T14:29:55;24.60;39.10
37518;DHT22;23366;52.498;13.446;2023-06-04T14:32:21;24.60;38.80
37518;DHT22;23366;52.498;13.446;2023-06-04T14:34:47;24.40;39.40
37518;DHT22;23366;52.498;13.446;2023-06-04T14:37:12;24.40;39.30
37518;DHT22;23366;52.498;13.446;2023-06-04T14:39:38;24.20;39.10
37518;DHT22;23366;52.498;13.446;2023-06-04T14:42:04;23.90;39.30
37518;DHT22;23366;52.498;13.446;2023-06-04T14:44:30;23.70;39.70
37518;DHT22;23366;52.498;13.446;2023-06-04T14:46:55;23.60;40.00
37518;DHT22;23366;52.498;13.446;2023-06-04T14:49:21;23.60;40.40
37518;DHT22;23366;52.498;13.446;2023-06-04T14:51:47;23.50;40.20
37518;DHT22;23366;52.498;13.446;2023-06-04T14:54:12;23.40;39.30
37518;DHT22;23366;52.498;13.446;2023-06-04T14:56:38;23.30;39.70
37518;DHT22;23366;52.498;13.446;2023-06-04T14:59:03;23.30;39.70
37518;DHT22;23366;52.498;13.446;2023-06-04T15:01:34;23.20;39.80
37518;DHT22;23366;52.498;13.446;2023-06-04T15:04:01;23.20;40.10
37518;DHT22;23366;52.498;13.446;2023-06-04T15:06:27;23.20;40.40
37518;DHT22;23366;52.498;13.446;2023-06-04T15:08:55;23.20;40.60
37518;DHT22;23366;52.498;13.446;2023-06-04T15:11:21;23.20;40.20
37518;DHT22;23366;52.498;13.446;2023-06-04T15:13:46;23.10;40.50
37518;DHT22;23366;52.498;13.446;2023-06-04T15:16:12;23.10;40.60
37518;DHT22;23366;52.498;13.446;2023-06-04T15:18:38;23.20;40.50
37518;DHT22;23366;52.498;13.446;2023-06-04T15:21:03;23.20;40.30
37518;DHT22;23366;52.498;13.446;2023-06-04T15:23:29;23.20;40.40
37518;DHT22;23366;52.498;13.446;2023-06-04T15:25:55;23.20;40.50
37518;DHT22;23366;52.498;13.446;2023-06-04T15:28:20;23.10;40.70